Terminal Aerodrome Forecast
Issued by NWS Flagstaff, AZ

Home | Current Version | Previous Version | Text Only | Print | Product List | Glossary On
Versions: 1 2 3 4 5 6 7 8 9 10 11 12 13 14 15 16
000
FTUS45 KFGZ 201845 AAA
TAFFLG
TAF AMD
KFLG 201845Z 2019/2118 24013KT P6SM -SHSN SCT025 SCT035 OVC040
      TEMPO 2019/2022 5SM -SHSN BKN025
     FM210100 VRB05KT P6SM FEW035
     FM210600 VRB03KT P6SM SKC=

USA.gov is the U.S. government's official web portal to all federal, state and local government web resources and services.